sensor_id;sensor_type;location;lat;lon;timestamp;P1;durP1;ratioP1;P2;durP2;ratioP2
363;SDS011;173;48.718;9.274;2022-07-09T00:02:05;5.15;;;3.10;;
363;SDS011;173;48.718;9.274;2022-07-09T00:04:37;6.10;;;3.20;;
363;SDS011;173;48.718;9.274;2022-07-09T00:07:10;4.35;;;3.75;;
363;SDS011;173;48.718;9.274;2022-07-09T00:09:42;3.80;;;2.90;;
363;SDS011;173;48.718;9.274;2022-07-09T00:12:14;3.50;;;3.20;;
363;SDS011;173;48.718;9.274;2022-07-09T00:15:00;2.85;;;2.65;;
363;SDS011;173;48.718;9.274;2022-07-09T00:17:33;3.65;;;2.80;;
363;SDS011;173;48.718;9.274;2022-07-09T00:20:06;2.60;;;2.40;;
363;SDS011;173;48.718;9.274;2022-07-09T00:24:06;3.70;;;3.40;;
363;SDS011;173;48.718;9.274;2022-07-09T00:26:38;4.40;;;3.75;;
363;SDS011;173;48.718;9.274;2022-07-09T00:29:10;3.95;;;2.90;;
363;SDS011;173;48.718;9.274;2022-07-09T00:31:42;3.80;;;3.50;;
363;SDS011;173;48.718;9.274;2022-07-09T00:34:15;4.85;;;3.30;;
363;SDS011;173;48.718;9.274;2022-07-09T00:39:15;4.50;;;3.10;;
363;SDS011;173;48.718;9.274;2022-07-09T00:41:47;5.00;;;3.60;;
363;SDS011;173;48.718;9.274;2022-07-09T00:44:21;4.20;;;3.80;;
363;SDS011;173;48.718;9.274;2022-07-09T00:46:53;3.80;;;2.90;;
363;SDS011;173;48.718;9.274;2022-07-09T00:49:25;4.60;;;3.70;;
363;SDS011;173;48.718;9.274;2022-07-09T00:54:35;4.20;;;3.80;;
363;SDS011;173;48.718;9.274;2022-07-09T00:57:09;5.10;;;3.20;;
363;SDS011;173;48.718;9.274;2022-07-09T00:59:44;5.60;;;3.75;;
363;SDS011;173;48.718;9.274;2022-07-09T01:02:16;3.40;;;3.20;;
363;SDS011;173;48.718;9.274;2022-07-09T01:04:52;5.80;;;2.90;;
363;SDS011;173;48.718;9.274;2022-07-09T01:07:24;3.75;;;3.45;;
363;SDS011;173;48.718;9.274;2022-07-09T01:10:08;4.20;;;3.90;;
363;SDS011;173;48.718;9.274;2022-07-09T01:12:40;5.60;;;3.60;;
363;SDS011;173;48.718;9.274;2022-07-09T01:15:13;4.30;;;3.50;;
363;SDS011;173;48.718;9.274;2022-07-09T01:17:46;3.30;;;3.10;;
363;SDS011;173;48.718;9.274;2022-07-09T01:20:21;4.45;;;3.60;;
363;SDS011;173;48.718;9.274;2022-07-09T01:22:58;4.70;;;4.30;;
363;SDS011;173;48.718;9.274;2022-07-09T01:25:34;5.70;;;3.50;;
363;SDS011;173;48.718;9.274;2022-07-09T01:28:10;4.05;;;3.70;;
363;SDS011;173;48.718;9.274;2022-07-09T01:30:43;4.70;;;3.65;;
363;SDS011;173;48.718;9.274;2022-07-09T01:33:16;4.50;;;4.10;;
363;SDS011;173;48.718;9.274;2022-07-09T01:37:11;3.80;;;3.40;;
363;SDS011;173;48.718;9.274;2022-07-09T01:39:43;3.80;;;3.50;;
363;SDS011;173;48.718;9.274;2022-07-09T01:42:18;4.20;;;3.60;;
363;SDS011;173;48.718;9.274;2022-07-09T01:44:51;3.40;;;3.10;;
363;SDS011;173;48.718;9.274;2022-07-09T01:47:23;4.10;;;3.20;;
363;SDS011;173;48.718;9.274;2022-07-09T01:49:55;3.75;;;3.45;;
363;SDS011;173;48.718;9.274;2022-07-09T01:52:28;3.80;;;3.50;;
363;SDS011;173;48.718;9.274;2022-07-09T01:55:01;4.90;;;4.20;;
363;SDS011;173;48.718;9.274;2022-07-09T01:57:34;4.20;;;3.50;;
363;SDS011;173;48.718;9.274;2022-07-09T02:00:06;5.30;;;3.90;;
363;SDS011;173;48.718;9.274;2022-07-09T02:02:40;3.70;;;3.35;;
363;SDS011;173;48.718;9.274;2022-07-09T02:05:12;4.80;;;4.30;;
363;SDS011;173;48.718;9.274;2022-07-09T02:07:44;4.05;;;3.65;;
363;SDS011;173;48.718;9.274;2022-07-09T02:10:17;4.55;;;3.80;;
363;SDS011;173;48.718;9.274;2022-07-09T02:12:49;5.15;;;4.35;;
363;SDS011;173;48.718;9.274;2022-07-09T02:15:21;4.60;;;4.20;;
363;SDS011;173;48.718;9.274;2022-07-09T02:17:53;3.60;;;3.30;;
363;SDS011;173;48.718;9.274;2022-07-09T02:20:25;4.50;;;3.45;;
363;SDS011;173;48.718;9.274;2022-07-09T02:22:58;5.70;;;4.45;;
363;SDS011;173;48.718;9.274;2022-07-09T02:25:30;4.50;;;3.70;;
363;SDS011;173;48.718;9.274;2022-07-09T02:28:02;3.75;;;3.45;;
363;SDS011;173;48.718;9.274;2022-07-09T02:30:34;3.70;;;3.40;;
363;SDS011;173;48.718;9.274;2022-07-09T02:33:06;4.70;;;3.95;;
363;SDS011;173;48.718;9.274;2022-07-09T02:35:38;6.70;;;4.20;;
363;SDS011;173;48.718;9.274;2022-07-09T02:38:11;4.60;;;3.90;;
363;SDS011;173;48.718;9.274;2022-07-09T02:40:43;4.10;;;3.70;;
363;SDS011;173;48.718;9.274;2022-07-09T02:43:15;4.60;;;4.10;;
363;SDS011;173;48.718;9.274;2022-07-09T02:45:47;3.85;;;3.45;;
363;SDS011;173;48.718;9.274;2022-07-09T02:48:22;4.53;;;3.30;;
363;SDS011;173;48.718;9.274;2022-07-09T02:50:54;4.55;;;3.45;;
363;SDS011;173;48.718;9.274;2022-07-09T02:53:26;3.70;;;3.45;;
363;SDS011;173;48.718;9.274;2022-07-09T02:55:58;4.15;;;3.40;;
363;SDS011;173;48.718;9.274;2022-07-09T02:58:40;5.10;;;4.10;;
363;SDS011;173;48.718;9.274;2022-07-09T03:01:13;3.70;;;3.40;;
363;SDS011;173;48.718;9.274;2022-07-09T03:03:45;6.15;;;4.00;;
363;SDS011;173;48.718;9.274;2022-07-09T03:06:18;4.00;;;3.50;;
363;SDS011;173;48.718;9.274;2022-07-09T03:08:51;4.10;;;3.80;;
363;SDS011;173;48.718;9.274;2022-07-09T03:11:23;4.00;;;3.60;;
363;SDS011;173;48.718;9.274;2022-07-09T03:13:55;4.60;;;3.85;;
363;SDS011;173;48.718;9.274;2022-07-09T03:20:11;5.50;;;3.10;;
363;SDS011;173;48.718;9.274;2022-07-09T03:22:43;3.60;;;3.30;;
363;SDS011;173;48.718;9.274;2022-07-09T03:25:15;4.55;;;3.85;;
363;SDS011;173;48.718;9.274;2022-07-09T03:27:48;4.30;;;3.80;;
363;SDS011;173;48.718;9.274;2022-07-09T03:30:21;4.65;;;4.00;;
363;SDS011;173;48.718;9.274;2022-07-09T03:32:53;7.85;;;3.70;;
363;SDS011;173;48.718;9.274;2022-07-09T03:35:25;5.95;;;3.90;;
363;SDS011;173;48.718;9.274;2022-07-09T03:37:57;4.05;;;3.70;;
363;SDS011;173;48.718;9.274;2022-07-09T03:40:29;3.90;;;3.20;;
363;SDS011;173;48.718;9.274;2022-07-09T03:45:42;5.00;;;3.40;;
363;SDS011;173;48.718;9.274;2022-07-09T03:48:15;6.03;;;4.00;;
363;SDS011;173;48.718;9.274;2022-07-09T03:50:47;5.10;;;2.90;;
363;SDS011;173;48.718;9.274;2022-07-09T03:53:19;5.20;;;3.60;;
363;SDS011;173;48.718;9.274;2022-07-09T03:55:51;4.50;;;3.60;;
363;SDS011;173;48.718;9.274;2022-07-09T03:58:23;4.55;;;3.85;;
363;SDS011;173;48.718;9.274;2022-07-09T04:00:56;7.00;;;4.25;;
363;SDS011;173;48.718;9.274;2022-07-09T04:03:28;3.90;;;2.80;;
363;SDS011;173;48.718;9.274;2022-07-09T04:06:00;4.20;;;3.35;;
363;SDS011;173;48.718;9.274;2022-07-09T04:08:33;4.60;;;3.55;;
363;SDS011;173;48.718;9.274;2022-07-09T04:11:05;4.80;;;4.00;;
363;SDS011;173;48.718;9.274;2022-07-09T04:13:37;3.25;;;2.95;;
363;SDS011;173;48.718;9.274;2022-07-09T04:16:10;4.80;;;4.30;;
363;SDS011;173;48.718;9.274;2022-07-09T04:18:42;5.20;;;3.40;;
363;SDS011;173;48.718;9.274;2022-07-09T04:21:14;4.00;;;3.60;;
363;SDS011;173;48.718;9.274;2022-07-09T04:23:50;3.60;;;3.30;;
363;SDS011;173;48.718;9.274;2022-07-09T04:26:23;3.30;;;2.70;;
363;SDS011;173;48.718;9.274;2022-07-09T04:28:56;3.75;;;3.45;;
363;SDS011;173;48.718;9.274;2022-07-09T04:31:28;3.50;;;3.20;;
363;SDS011;173;48.718;9.274;2022-07-09T04:34:00;4.65;;;4.25;;
363;SDS011;173;48.718;9.274;2022-07-09T04:36:32;4.20;;;3.80;;
363;SDS011;173;48.718;9.274;2022-07-09T04:39:04;5.20;;;3.10;;
363;SDS011;173;48.718;9.274;2022-07-09T04:41:36;5.80;;;4.10;;
363;SDS011;173;48.718;9.274;2022-07-09T04:44:09;3.20;;;3.00;;
363;SDS011;173;48.718;9.274;2022-07-09T04:46:42;3.40;;;3.10;;
363;SDS011;173;48.718;9.274;2022-07-09T04:49:14;4.10;;;3.80;;
363;SDS011;173;48.718;9.274;2022-07-09T04:51:46;3.85;;;3.50;;
363;SDS011;173;48.718;9.274;2022-07-09T04:54:18;3.50;;;3.20;;
363;SDS011;173;48.718;9.274;2022-07-09T04:56:50;3.70;;;3.40;;
363;SDS011;173;48.718;9.274;2022-07-09T04:59:23;5.10;;;3.70;;
363;SDS011;173;48.718;9.274;2022-07-09T05:01:55;3.30;;;3.00;;
363;SDS011;173;48.718;9.274;2022-07-09T05:04:27;4.70;;;3.70;;
363;SDS011;173;48.718;9.274;2022-07-09T05:06:59;5.15;;;4.25;;
363;SDS011;173;48.718;9.274;2022-07-09T05:09:32;5.25;;;4.85;;
363;SDS011;173;48.718;9.274;2022-07-09T05:12:04;4.40;;;4.10;;
363;SDS011;173;48.718;9.274;2022-07-09T05:16:56;4.90;;;4.05;;
363;SDS011;173;48.718;9.274;2022-07-09T05:19:28;4.50;;;4.10;;
363;SDS011;173;48.718;9.274;2022-07-09T05:22:00;5.00;;;3.30;;
363;SDS011;173;48.718;9.274;2022-07-09T05:24:33;4.55;;;4.10;;
363;SDS011;173;48.718;9.274;2022-07-09T05:27:06;4.70;;;4.30;;
363;SDS011;173;48.718;9.274;2022-07-09T05:29:39;3.50;;;3.20;;
363;SDS011;173;48.718;9.274;2022-07-09T05:32:11;3.55;;;3.25;;
363;SDS011;173;48.718;9.274;2022-07-09T05:34:43;4.00;;;3.50;;
363;SDS011;173;48.718;9.274;2022-07-09T05:37:15;6.75;;;3.65;;
363;SDS011;173;48.718;9.274;2022-07-09T05:39:47;4.00;;;3.60;;
363;SDS011;173;48.718;9.274;2022-07-09T05:42:19;4.40;;;3.75;;
363;SDS011;173;48.718;9.274;2022-07-09T05:44:51;5.05;;;4.55;;
363;SDS011;173;48.718;9.274;2022-07-09T05:47:23;5.50;;;3.50;;
363;SDS011;173;48.718;9.274;2022-07-09T05:49:56;4.10;;;3.80;;
363;SDS011;173;48.718;9.274;2022-07-09T05:52:27;6.10;;;3.45;;
363;SDS011;173;48.718;9.274;2022-07-09T05:54:57;4.40;;;3.55;;
363;SDS011;173;48.718;9.274;2022-07-09T05:57:30;6.60;;;4.40;;
363;SDS011;173;48.718;9.274;2022-07-09T06:00:02;6.90;;;4.10;;
363;SDS011;173;48.718;9.274;2022-07-09T06:02:36;3.80;;;3.40;;
363;SDS011;173;48.718;9.274;2022-07-09T06:05:08;5.90;;;3.50;;
363;SDS011;173;48.718;9.274;2022-07-09T06:07:40;4.30;;;3.75;;
363;SDS011;173;48.718;9.274;2022-07-09T06:10:12;4.40;;;4.00;;
363;SDS011;173;48.718;9.274;2022-07-09T06:12:44;3.50;;;3.00;;
363;SDS011;173;48.718;9.274;2022-07-09T06:15:16;4.20;;;3.80;;
363;SDS011;173;48.718;9.274;2022-07-09T06:17:49;3.70;;;3.40;;
363;SDS011;173;48.718;9.274;2022-07-09T06:20:21;3.30;;;3.00;;
363;SDS011;173;48.718;9.274;2022-07-09T06:22:53;3.60;;;3.30;;
363;SDS011;173;48.718;9.274;2022-07-09T06:26:11;4.20;;;3.10;;
363;SDS011;173;48.718;9.274;2022-07-09T06:28:43;3.95;;;3.35;;
363;SDS011;173;48.718;9.274;2022-07-09T06:31:15;3.53;;;3.10;;
363;SDS011;173;48.718;9.274;2022-07-09T06:33:48;5.60;;;3.90;;
363;SDS011;173;48.718;9.274;2022-07-09T06:36:22;3.70;;;3.40;;
363;SDS011;173;48.718;9.274;2022-07-09T06:38:55;3.35;;;3.05;;
363;SDS011;173;48.718;9.274;2022-07-09T06:41:45;4.00;;;3.70;;
363;SDS011;173;48.718;9.274;2022-07-09T06:44:17;4.50;;;3.10;;
363;SDS011;173;48.718;9.274;2022-07-09T06:46:50;3.40;;;3.10;;
363;SDS011;173;48.718;9.274;2022-07-09T06:49:21;3.40;;;3.20;;
363;SDS011;173;48.718;9.274;2022-07-09T06:51:51;7.10;;;3.45;;
363;SDS011;173;48.718;9.274;2022-07-09T06:55:32;4.35;;;3.95;;
363;SDS011;173;48.718;9.274;2022-07-09T06:58:04;4.90;;;4.50;;
363;SDS011;173;48.718;9.274;2022-07-09T07:00:36;4.05;;;3.65;;
363;SDS011;173;48.718;9.274;2022-07-09T07:03:08;3.80;;;3.50;;
363;SDS011;173;48.718;9.274;2022-07-09T07:05:40;3.50;;;3.20;;
363;SDS011;173;48.718;9.274;2022-07-09T07:08:12;3.80;;;3.40;;
363;SDS011;173;48.718;9.274;2022-07-09T07:10:44;4.40;;;4.00;;
363;SDS011;173;48.718;9.274;2022-07-09T07:13:16;4.30;;;3.10;;
363;SDS011;173;48.718;9.274;2022-07-09T07:15:48;3.50;;;2.97;;
363;SDS011;173;48.718;9.274;2022-07-09T07:18:20;3.60;;;3.30;;
363;SDS011;173;48.718;9.274;2022-07-09T07:20:52;4.30;;;3.55;;
363;SDS011;173;48.718;9.274;2022-07-09T07:23:24;3.10;;;2.90;;
363;SDS011;173;48.718;9.274;2022-07-09T07:25:59;3.00;;;2.80;;
363;SDS011;173;48.718;9.274;2022-07-09T07:28:32;2.90;;;2.70;;
363;SDS011;173;48.718;9.274;2022-07-09T07:31:03;4.20;;;3.10;;
363;SDS011;173;48.718;9.274;2022-07-09T07:33:35;5.20;;;3.50;;
363;SDS011;173;48.718;9.274;2022-07-09T07:36:07;4.20;;;3.00;;
363;SDS011;173;48.718;9.274;2022-07-09T07:38:39;4.40;;;2.80;;
363;SDS011;173;48.718;9.274;2022-07-09T07:41:14;4.40;;;2.90;;
363;SDS011;173;48.718;9.274;2022-07-09T07:43:47;3.40;;;3.10;;
363;SDS011;173;48.718;9.274;2022-07-09T07:46:19;3.30;;;2.65;;
363;SDS011;173;48.718;9.274;2022-07-09T07:51:21;2.85;;;2.60;;
363;SDS011;173;48.718;9.274;2022-07-09T07:53:53;3.30;;;3.00;;
363;SDS011;173;48.718;9.274;2022-07-09T07:56:25;3.20;;;2.90;;
363;SDS011;173;48.718;9.274;2022-07-09T07:58:58;4.55;;;2.95;;
363;SDS011;173;48.718;9.274;2022-07-09T08:01:30;3.40;;;2.70;;
363;SDS011;173;48.718;9.274;2022-07-09T08:04:03;3.70;;;2.60;;
363;SDS011;173;48.718;9.274;2022-07-09T08:06:35;2.50;;;2.30;;
363;SDS011;173;48.718;9.274;2022-07-09T08:09:07;3.10;;;2.50;;
363;SDS011;173;48.718;9.274;2022-07-09T08:17:47;3.40;;;2.70;;
363;SDS011;173;48.718;9.274;2022-07-09T08:20:20;3.70;;;2.20;;
363;SDS011;173;48.718;9.274;2022-07-09T08:22:52;2.90;;;2.30;;
363;SDS011;173;48.718;9.274;2022-07-09T08:25:24;4.15;;;2.40;;
363;SDS011;173;48.718;9.274;2022-07-09T08:27:56;4.35;;;2.00;;
363;SDS011;173;48.718;9.274;2022-07-09T08:30:29;3.90;;;2.30;;
363;SDS011;173;48.718;9.274;2022-07-09T08:33:03;2.40;;;2.10;;
363;SDS011;173;48.718;9.274;2022-07-09T08:35:35;2.80;;;2.30;;
363;SDS011;173;48.718;9.274;2022-07-09T08:38:07;3.00;;;2.20;;
363;SDS011;173;48.718;9.274;2022-07-09T08:40:38;7.20;;;2.20;;
363;SDS011;173;48.718;9.274;2022-07-09T08:43:12;3.30;;;2.40;;
363;SDS011;173;48.718;9.274;2022-07-09T08:45:44;5.03;;;4.10;;
363;SDS011;173;48.718;9.274;2022-07-09T08:48:19;1.95;;;1.85;;
363;SDS011;173;48.718;9.274;2022-07-09T08:50:51;2.20;;;1.70;;
363;SDS011;173;48.718;9.274;2022-07-09T08:53:24;3.20;;;1.80;;
363;SDS011;173;48.718;9.274;2022-07-09T08:55:57;1.60;;;1.50;;
363;SDS011;173;48.718;9.274;2022-07-09T08:58:30;2.55;;;1.80;;
363;SDS011;173;48.718;9.274;2022-07-09T09:01:03;2.95;;;2.65;;
363;SDS011;173;48.718;9.274;2022-07-09T09:03:36;1.95;;;1.75;;
363;SDS011;173;48.718;9.274;2022-07-09T09:06:09;1.40;;;1.30;;
363;SDS011;173;48.718;9.274;2022-07-09T09:08:42;3.10;;;2.10;;
363;SDS011;173;48.718;9.274;2022-07-09T09:11:26;1.45;;;1.35;;
363;SDS011;173;48.718;9.274;2022-07-09T09:13:54;3.90;;;1.50;;
363;SDS011;173;48.718;9.274;2022-07-09T09:16:26;3.20;;;1.40;;
363;SDS011;173;48.718;9.274;2022-07-09T09:18:58;2.00;;;1.90;;
363;SDS011;173;48.718;9.274;2022-07-09T09:24:02;2.20;;;1.40;;
363;SDS011;173;48.718;9.274;2022-07-09T09:29:57;2.60;;;1.55;;
363;SDS011;173;48.718;9.274;2022-07-09T09:32:29;2.40;;;1.20;;
363;SDS011;173;48.718;9.274;2022-07-09T09:35:02;2.60;;;1.60;;
363;SDS011;173;48.718;9.274;2022-07-09T09:37:35;1.40;;;1.30;;
363;SDS011;173;48.718;9.274;2022-07-09T09:40:08;1.85;;;1.65;;
363;SDS011;173;48.718;9.274;2022-07-09T09:42:42;2.05;;;1.60;;
363;SDS011;173;48.718;9.274;2022-07-09T09:45:16;1.90;;;1.70;;
363;SDS011;173;48.718;9.274;2022-07-09T09:47:49;2.00;;;1.90;;
363;SDS011;173;48.718;9.274;2022-07-09T09:50:24;1.80;;;1.70;;
363;SDS011;173;48.718;9.274;2022-07-09T09:52:56;2.65;;;1.45;;
363;SDS011;173;48.718;9.274;2022-07-09T09:55:28;2.00;;;1.50;;
363;SDS011;173;48.718;9.274;2022-07-09T09:58:01;2.25;;;1.60;;
363;SDS011;173;48.718;9.274;2022-07-09T10:00:35;1.50;;;1.40;;
363;SDS011;173;48.718;9.274;2022-07-09T10:03:08;1.85;;;1.65;;
363;SDS011;173;48.718;9.274;2022-07-09T10:05:42;1.50;;;1.40;;
363;SDS011;173;48.718;9.274;2022-07-09T10:08:17;1.50;;;1.30;;
363;SDS011;173;48.718;9.274;2022-07-09T10:10:51;1.50;;;1.40;;
363;SDS011;173;48.718;9.274;2022-07-09T10:13:24;1.70;;;1.60;;
363;SDS011;173;48.718;9.274;2022-07-09T10:15:56;1.50;;;1.40;;
363;SDS011;173;48.718;9.274;2022-07-09T10:18:29;2.55;;;1.50;;
363;SDS011;173;48.718;9.274;2022-07-09T10:21:01;2.15;;;1.60;;
363;SDS011;173;48.718;9.274;2022-07-09T10:23:33;2.00;;;1.45;;
363;SDS011;173;48.718;9.274;2022-07-09T10:26:08;1.70;;;1.60;;
363;SDS011;173;48.718;9.274;2022-07-09T10:28:40;3.40;;;1.60;;
363;SDS011;173;48.718;9.274;2022-07-09T10:31:16;3.50;;;1.95;;
363;SDS011;173;48.718;9.274;2022-07-09T10:41:20;2.60;;;1.30;;
363;SDS011;173;48.718;9.274;2022-07-09T10:43:52;1.70;;;1.50;;
363;SDS011;173;48.718;9.274;2022-07-09T10:46:25;2.20;;;1.90;;
363;SDS011;173;48.718;9.274;2022-07-09T10:48:55;3.10;;;1.30;;
363;SDS011;173;48.718;9.274;2022-07-09T10:51:39;1.50;;;1.30;;
363;SDS011;173;48.718;9.274;2022-07-09T10:54:15;5.05;;;1.65;;
363;SDS011;173;48.718;9.274;2022-07-09T10:56:47;2.50;;;1.90;;
363;SDS011;173;48.718;9.274;2022-07-09T10:59:22;1.80;;;1.70;;
363;SDS011;173;48.718;9.274;2022-07-09T11:01:55;2.10;;;1.70;;
363;SDS011;173;48.718;9.274;2022-07-09T11:04:27;2.95;;;1.60;;
363;SDS011;173;48.718;9.274;2022-07-09T11:07:01;2.00;;;1.90;;
363;SDS011;173;48.718;9.274;2022-07-09T11:09:33;3.00;;;1.50;;
363;SDS011;173;48.718;9.274;2022-07-09T11:12:05;3.10;;;1.70;;
363;SDS011;173;48.718;9.274;2022-07-09T11:14:50;1.80;;;1.60;;
363;SDS011;173;48.718;9.274;2022-07-09T11:17:16;2.40;;;1.60;;
363;SDS011;173;48.718;9.274;2022-07-09T11:19:50;2.85;;;1.65;;
363;SDS011;173;48.718;9.274;2022-07-09T11:22:23;3.70;;;1.70;;
363;SDS011;173;48.718;9.274;2022-07-09T11:24:55;2.05;;;1.70;;
363;SDS011;173;48.718;9.274;2022-07-09T11:27:28;2.25;;;2.15;;
363;SDS011;173;48.718;9.274;2022-07-09T11:30:03;1.60;;;1.40;;
363;SDS011;173;48.718;9.274;2022-07-09T11:32:43;3.35;;;2.15;;
363;SDS011;173;48.718;9.274;2022-07-09T11:35:31;1.70;;;1.60;;
363;SDS011;173;48.718;9.274;2022-07-09T11:38:05;1.70;;;1.60;;
363;SDS011;173;48.718;9.274;2022-07-09T11:40:38;2.15;;;1.80;;
363;SDS011;173;48.718;9.274;2022-07-09T11:43:13;2.10;;;1.60;;
363;SDS011;173;48.718;9.274;2022-07-09T11:45:54;2.50;;;1.90;;
363;SDS011;173;48.718;9.274;2022-07-09T11:48:26;3.00;;;1.90;;
363;SDS011;173;48.718;9.274;2022-07-09T11:50:59;1.70;;;1.60;;
363;SDS011;173;48.718;9.274;2022-07-09T11:53:31;1.70;;;1.50;;
363;SDS011;173;48.718;9.274;2022-07-09T11:56:03;2.60;;;1.75;;
363;SDS011;173;48.718;9.274;2022-07-09T11:58:36;1.45;;;1.35;;
363;SDS011;173;48.718;9.274;2022-07-09T12:01:10;1.60;;;1.50;;
363;SDS011;173;48.718;9.274;2022-07-09T12:03:46;1.65;;;1.10;;
363;SDS011;173;48.718;9.274;2022-07-09T12:06:18;2.75;;;2.50;;
363;SDS011;173;48.718;9.274;2022-07-09T12:08:57;2.35;;;1.70;;
363;SDS011;173;48.718;9.274;2022-07-09T12:11:31;1.70;;;1.45;;
363;SDS011;173;48.718;9.274;2022-07-09T12:14:03;1.60;;;1.20;;
363;SDS011;173;48.718;9.274;2022-07-09T12:16:37;2.70;;;1.60;;
363;SDS011;173;48.718;9.274;2022-07-09T12:19:09;1.40;;;1.30;;
363;SDS011;173;48.718;9.274;2022-07-09T12:21:41;3.15;;;1.45;;
363;SDS011;173;48.718;9.274;2022-07-09T12:26:37;2.95;;;1.50;;
363;SDS011;173;48.718;9.274;2022-07-09T12:29:10;1.40;;;1.30;;
363;SDS011;173;48.718;9.274;2022-07-09T12:31:42;4.50;;;1.70;;
363;SDS011;173;48.718;9.274;2022-07-09T12:34:14;1.40;;;1.30;;
363;SDS011;173;48.718;9.274;2022-07-09T12:36:46;2.05;;;1.95;;
363;SDS011;173;48.718;9.274;2022-07-09T12:39:18;1.60;;;1.50;;
363;SDS011;173;48.718;9.274;2022-07-09T12:41:51;1.30;;;1.20;;
363;SDS011;173;48.718;9.274;2022-07-09T12:44:29;1.55;;;1.40;;
363;SDS011;173;48.718;9.274;2022-07-09T12:47:04;4.10;;;1.60;;
363;SDS011;173;48.718;9.274;2022-07-09T12:49:37;2.10;;;1.60;;
363;SDS011;173;48.718;9.274;2022-07-09T12:52:09;2.00;;;1.60;;
363;SDS011;173;48.718;9.274;2022-07-09T12:54:41;1.85;;;1.40;;
363;SDS011;173;48.718;9.274;2022-07-09T12:57:13;1.25;;;1.15;;
363;SDS011;173;48.718;9.274;2022-07-09T12:59:46;1.10;;;1.00;;
363;SDS011;173;48.718;9.274;2022-07-09T13:02:18;3.00;;;1.50;;
363;SDS011;173;48.718;9.274;2022-07-09T13:04:50;1.80;;;1.10;;
363;SDS011;173;48.718;9.274;2022-07-09T13:07:23;1.40;;;1.30;;
363;SDS011;173;48.718;9.274;2022-07-09T13:09:55;1.60;;;1.50;;
363;SDS011;173;48.718;9.274;2022-07-09T13:12:27;2.30;;;2.00;;
363;SDS011;173;48.718;9.274;2022-07-09T13:15:00;1.70;;;1.30;;
363;SDS011;173;48.718;9.274;2022-07-09T13:17:30;3.00;;;1.55;;
363;SDS011;173;48.718;9.274;2022-07-09T13:20:03;1.50;;;1.40;;
363;SDS011;173;48.718;9.274;2022-07-09T13:22:35;4.40;;;1.30;;
363;SDS011;173;48.718;9.274;2022-07-09T13:25:06;2.50;;;1.15;;
363;SDS011;173;48.718;9.274;2022-07-09T13:27:38;1.40;;;1.10;;
363;SDS011;173;48.718;9.274;2022-07-09T13:30:11;1.35;;;1.25;;
363;SDS011;173;48.718;9.274;2022-07-09T13:32:45;1.60;;;1.20;;
363;SDS011;173;48.718;9.274;2022-07-09T13:35:18;1.40;;;1.30;;
363;SDS011;173;48.718;9.274;2022-07-09T13:37:50;2.00;;;1.30;;
363;SDS011;173;48.718;9.274;2022-07-09T13:40:22;1.50;;;1.40;;
363;SDS011;173;48.718;9.274;2022-07-09T13:42:54;1.30;;;1.10;;
363;SDS011;173;48.718;9.274;2022-07-09T13:45:27;1.40;;;1.30;;
363;SDS011;173;48.718;9.274;2022-07-09T13:47:59;2.80;;;1.30;;
363;SDS011;173;48.718;9.274;2022-07-09T13:50:32;1.80;;;1.60;;
363;SDS011;173;48.718;9.274;2022-07-09T13:53:04;2.15;;;1.20;;
363;SDS011;173;48.718;9.274;2022-07-09T13:55:36;1.90;;;1.60;;
363;SDS011;173;48.718;9.274;2022-07-09T13:58:19;1.45;;;1.35;;
363;SDS011;173;48.718;9.274;2022-07-09T14:00:51;2.00;;;1.20;;
363;SDS011;173;48.718;9.274;2022-07-09T14:03:23;1.40;;;1.20;;
363;SDS011;173;48.718;9.274;2022-07-09T14:05:55;1.40;;;1.30;;
363;SDS011;173;48.718;9.274;2022-07-09T14:08:27;1.70;;;1.30;;
363;SDS011;173;48.718;9.274;2022-07-09T14:11:00;1.50;;;1.40;;
363;SDS011;173;48.718;9.274;2022-07-09T14:13:32;2.05;;;1.35;;
363;SDS011;173;48.718;9.274;2022-07-09T14:16:04;1.70;;;1.20;;
363;SDS011;173;48.718;9.274;2022-07-09T14:18:37;1.70;;;1.10;;
363;SDS011;173;48.718;9.274;2022-07-09T14:21:09;2.00;;;1.30;;
363;SDS011;173;48.718;9.274;2022-07-09T14:23:41;1.55;;;1.45;;
363;SDS011;173;48.718;9.274;2022-07-09T14:26:14;1.90;;;1.80;;
363;SDS011;173;48.718;9.274;2022-07-09T14:28:47;1.50;;;1.40;;
363;SDS011;173;48.718;9.274;2022-07-09T14:31:19;2.20;;;1.70;;
363;SDS011;173;48.718;9.274;2022-07-09T14:33:51;1.75;;;1.50;;
363;SDS011;173;48.718;9.274;2022-07-09T15:20:52;1.60;;;1.50;;
363;SDS011;173;48.718;9.274;2022-07-09T15:23:24;2.90;;;2.70;;
363;SDS011;173;48.718;9.274;2022-07-09T15:25:56;1.70;;;1.60;;
363;SDS011;173;48.718;9.274;2022-07-09T15:28:28;2.45;;;2.20;;
363;SDS011;173;48.718;9.274;2022-07-09T15:31:00;2.20;;;2.00;;
363;SDS011;173;48.718;9.274;2022-07-09T15:33:33;2.90;;;1.60;;
363;SDS011;173;48.718;9.274;2022-07-09T15:36:06;2.55;;;1.85;;
363;SDS011;173;48.718;9.274;2022-07-09T15:38:38;1.60;;;1.50;;
363;SDS011;173;48.718;9.274;2022-07-09T15:41:10;3.50;;;2.15;;
363;SDS011;173;48.718;9.274;2022-07-09T15:43:42;2.90;;;1.45;;
363;SDS011;173;48.718;9.274;2022-07-09T15:46:14;2.60;;;1.75;;
363;SDS011;173;48.718;9.274;2022-07-09T15:48:46;2.40;;;2.20;;
363;SDS011;173;48.718;9.274;2022-07-09T15:51:18;6.25;;;2.60;;
363;SDS011;173;48.718;9.274;2022-07-09T15:53:50;2.50;;;2.30;;
363;SDS011;173;48.718;9.274;2022-07-09T15:56:22;3.70;;;3.40;;
363;SDS011;173;48.718;9.274;2022-07-09T15:58:54;2.30;;;2.10;;
363;SDS011;173;48.718;9.274;2022-07-09T16:01:26;2.60;;;2.40;;
363;SDS011;173;48.718;9.274;2022-07-09T16:03:58;2.80;;;2.20;;
363;SDS011;173;48.718;9.274;2022-07-09T16:06:31;1.90;;;1.70;;
363;SDS011;173;48.718;9.274;2022-07-09T16:09:04;2.40;;;2.20;;
363;SDS011;173;48.718;9.274;2022-07-09T16:11:36;2.45;;;2.00;;
363;SDS011;173;48.718;9.274;2022-07-09T16:14:26;2.65;;;2.45;;
363;SDS011;173;48.718;9.274;2022-07-09T16:16:59;2.50;;;2.30;;
363;SDS011;173;48.718;9.274;2022-07-09T16:19:30;2.50;;;2.30;;
363;SDS011;173;48.718;9.274;2022-07-09T16:22:00;4.00;;;2.70;;
363;SDS011;173;48.718;9.274;2022-07-09T16:24:32;2.40;;;2.20;;
363;SDS011;173;48.718;9.274;2022-07-09T16:27:04;2.90;;;2.55;;
363;SDS011;173;48.718;9.274;2022-07-09T16:29:36;2.50;;;2.30;;
363;SDS011;173;48.718;9.274;2022-07-09T16:32:10;3.10;;;2.80;;
363;SDS011;173;48.718;9.274;2022-07-09T16:34:42;2.90;;;2.30;;
363;SDS011;173;48.718;9.274;2022-07-09T16:37:14;2.40;;;2.10;;
363;SDS011;173;48.718;9.274;2022-07-09T16:39:46;2.97;;;2.30;;
363;SDS011;173;48.718;9.274;2022-07-09T16:42:19;2.95;;;2.40;;
363;SDS011;173;48.718;9.274;2022-07-09T16:44:50;2.90;;;2.60;;
363;SDS011;173;48.718;9.274;2022-07-09T16:47:56;2.60;;;2.40;;
363;SDS011;173;48.718;9.274;2022-07-09T16:50:28;3.10;;;2.80;;
363;SDS011;173;48.718;9.274;2022-07-09T16:53:01;2.50;;;2.30;;
363;SDS011;173;48.718;9.274;2022-07-09T16:55:33;3.60;;;2.90;;
363;SDS011;173;48.718;9.274;2022-07-09T16:58:05;3.50;;;2.50;;
363;SDS011;173;48.718;9.274;2022-07-09T17:00:37;2.50;;;2.30;;
363;SDS011;173;48.718;9.274;2022-07-09T17:05:51;2.50;;;2.30;;
363;SDS011;173;48.718;9.274;2022-07-09T17:08:24;3.25;;;2.95;;
363;SDS011;173;48.718;9.274;2022-07-09T17:10:56;5.25;;;2.60;;
363;SDS011;173;48.718;9.274;2022-07-09T17:13:27;2.70;;;2.55;;
363;SDS011;173;48.718;9.274;2022-07-09T17:15:57;3.40;;;2.70;;
363;SDS011;173;48.718;9.274;2022-07-09T17:18:30;6.10;;;3.30;;
363;SDS011;173;48.718;9.274;2022-07-09T17:21:01;2.90;;;2.70;;
363;SDS011;173;48.718;9.274;2022-07-09T17:23:32;2.90;;;2.70;;
363;SDS011;173;48.718;9.274;2022-07-09T17:26:04;2.85;;;2.45;;
363;SDS011;173;48.718;9.274;2022-07-09T17:28:36;2.50;;;2.30;;
363;SDS011;173;48.718;9.274;2022-07-09T17:31:44;2.40;;;2.20;;
363;SDS011;173;48.718;9.274;2022-07-09T17:34:16;2.75;;;2.55;;
363;SDS011;173;48.718;9.274;2022-07-09T17:36:48;2.95;;;2.60;;
363;SDS011;173;48.718;9.274;2022-07-09T17:39:20;2.50;;;2.30;;
363;SDS011;173;48.718;9.274;2022-07-09T17:41:51;2.70;;;2.55;;
363;SDS011;173;48.718;9.274;2022-07-09T17:44:23;2.60;;;2.40;;
363;SDS011;173;48.718;9.274;2022-07-09T17:46:56;3.80;;;3.50;;
363;SDS011;173;48.718;9.274;2022-07-09T17:49:28;3.10;;;2.75;;
363;SDS011;173;48.718;9.274;2022-07-09T17:52:00;3.30;;;2.35;;